sensor_id;sensor_type;location;lat;lon;timestamp;pressure;altitude;pressure_sealevel;temperature;humidity
48364;BME280;34170;54.364;18.582;2023-04-01T00:01:50;98455.50;;;6.29;100.00
48364;BME280;34170;54.364;18.582;2023-04-01T00:04:17;98460.66;;;6.23;100.00
48364;BME280;34170;54.364;18.582;2023-04-01T00:06:45;98452.47;;;6.16;100.00
48364;BME280;34170;54.364;18.582;2023-04-01T00:09:14;98452.50;;;6.24;100.00
48364;BME280;34170;54.364;18.582;2023-04-01T00:11:42;98453.16;;;6.35;100.00
48364;BME280;34170;54.364;18.582;2023-04-01T00:14:09;98439.31;;;6.23;100.00
48364;BME280;34170;54.364;18.582;2023-04-01T00:16:37;98443.06;;;6.04;100.00
48364;BME280;34170;54.364;18.582;2023-04-01T00:19:05;98448.97;;;6.16;100.00
48364;BME280;34170;54.364;18.582;2023-04-01T00:21:33;98440.63;;;5.84;100.00
48364;BME280;34170;54.364;18.582;2023-04-01T00:24:00;98454.69;;;5.95;100.00
48364;BME280;34170;54.364;18.582;2023-04-01T00:26:28;98449.50;;;5.85;100.00
48364;BME280;34170;54.364;18.582;2023-04-01T00:28:55;98454.41;;;6.06;100.00
48364;BME280;34170;54.364;18.582;2023-04-01T00:31:23;98457.34;;;5.95;100.00
48364;BME280;34170;54.364;18.582;2023-04-01T00:33:51;98453.28;;;6.08;100.00
48364;BME280;34170;54.364;18.582;2023-04-01T00:36:20;98457.44;;;6.11;100.00
48364;BME280;34170;54.364;18.582;2023-04-01T00:38:51;98445.47;;;6.23;100.00
48364;BME280;34170;54.364;18.582;2023-04-01T00:41:19;98452.03;;;5.95;100.00
48364;BME280;34170;54.364;18.582;2023-04-01T00:43:50;98463.44;;;6.05;100.00
48364;BME280;34170;54.364;18.582;2023-04-01T00:46:19;98464.13;;;6.15;100.00
48364;BME280;34170;54.364;18.582;2023-04-01T00:48:49;98456.47;;;6.12;100.00
48364;BME280;34170;54.364;18.582;2023-04-01T00:51:29;98452.53;;;6.41;100.00
48364;BME280;34170;54.364;18.582;2023-04-01T00:53:58;98455.56;;;6.46;100.00
48364;BME280;34170;54.364;18.582;2023-04-01T00:56:34;98457.19;;;6.30;100.00
48364;BME280;34170;54.364;18.582;2023-04-01T00:59:11;98452.88;;;6.54;100.00
48364;BME280;34170;54.364;18.582;2023-04-01T01:01:41;98457.22;;;6.55;100.00
48364;BME280;34170;54.364;18.582;2023-04-01T01:04:22;98451.06;;;6.63;100.00
48364;BME280;34170;54.364;18.582;2023-04-01T01:07:05;98453.72;;;6.63;100.00
48364;BME280;34170;54.364;18.582;2023-04-01T01:10:22;98446.41;;;6.57;100.00
48364;BME280;34170;54.364;18.582;2023-04-01T01:15:28;98442.06;;;6.72;100.00
48364;BME280;34170;54.364;18.582;2023-04-01T01:23:40;98461.91;;;6.53;100.00
48364;BME280;34170;54.364;18.582;2023-04-01T01:26:46;98467.63;;;6.75;100.00
48364;BME280;34170;54.364;18.582;2023-04-01T01:34:40;98465.94;;;6.65;100.00
48364;BME280;34170;54.364;18.582;2023-04-01T01:37:14;98456.72;;;6.52;100.00
48364;BME280;34170;54.364;18.582;2023-04-01T01:39:48;98463.91;;;6.59;100.00
48364;BME280;34170;54.364;18.582;2023-04-01T01:42:18;98457.59;;;6.60;100.00
48364;BME280;34170;54.364;18.582;2023-04-01T01:44:48;98456.59;;;6.70;100.00
48364;BME280;34170;54.364;18.582;2023-04-01T01:47:19;98459.06;;;6.46;100.00
48364;BME280;34170;54.364;18.582;2023-04-01T01:49:48;98460.19;;;6.36;100.00
48364;BME280;34170;54.364;18.582;2023-04-01T01:52:17;98463.44;;;6.05;100.00
48364;BME280;34170;54.364;18.582;2023-04-01T01:54:48;98464.22;;;6.48;100.00
48364;BME280;34170;54.364;18.582;2023-04-01T01:57:16;98467.75;;;6.57;100.00
48364;BME280;34170;54.364;18.582;2023-04-01T01:59:50;98457.06;;;6.57;100.00
48364;BME280;34170;54.364;18.582;2023-04-01T02:02:25;98459.72;;;6.48;100.00
48364;BME280;34170;54.364;18.582;2023-04-01T02:04:53;98462.91;;;6.44;100.00
48364;BME280;34170;54.364;18.582;2023-04-01T02:07:26;98462.38;;;6.48;100.00
48364;BME280;34170;54.364;18.582;2023-04-01T02:09:55;98462.56;;;6.63;100.00
48364;BME280;34170;54.364;18.582;2023-04-01T02:12:23;98470.28;;;6.75;100.00
48364;BME280;34170;54.364;18.582;2023-04-01T02:15:06;98470.97;;;6.85;100.00
48364;BME280;34170;54.364;18.582;2023-04-01T02:17:39;98472.13;;;6.82;100.00
48364;BME280;34170;54.364;18.582;2023-04-01T02:20:18;98477.66;;;6.89;100.00
48364;BME280;34170;54.364;18.582;2023-04-01T02:22:49;98474.63;;;6.76;100.00
48364;BME280;34170;54.364;18.582;2023-04-01T02:25:22;98473.44;;;6.86;100.00
48364;BME280;34170;54.364;18.582;2023-04-01T02:27:51;98473.28;;;6.88;100.00
48364;BME280;34170;54.364;18.582;2023-04-01T02:30:20;98479.47;;;6.80;100.00
48364;BME280;34170;54.364;18.582;2023-04-01T02:32:48;98474.63;;;6.76;100.00
48364;BME280;34170;54.364;18.582;2023-04-01T02:35:17;98478.72;;;6.37;100.00
48364;BME280;34170;54.364;18.582;2023-04-01T02:37:45;98478.94;;;6.01;100.00
48364;BME280;34170;54.364;18.582;2023-04-01T02:40:16;98484.53;;;6.33;100.00
48364;BME280;34170;54.364;18.582;2023-04-01T02:42:44;98485.25;;;6.43;100.00
48364;BME280;34170;54.364;18.582;2023-04-01T02:45:13;98481.56;;;6.36;100.00
48364;BME280;34170;54.364;18.582;2023-04-01T02:47:41;98475.59;;;6.50;100.00
48364;BME280;34170;54.364;18.582;2023-04-01T02:50:09;98484.78;;;6.47;100.00
48364;BME280;34170;54.364;18.582;2023-04-01T02:52:37;98474.41;;;6.44;100.00
48364;BME280;34170;54.364;18.582;2023-04-01T02:55:06;98483.59;;;6.50;100.00
48364;BME280;34170;54.364;18.582;2023-04-01T02:57:34;98481.75;;;6.42;100.00
48364;BME280;34170;54.364;18.582;2023-04-01T03:00:02;98481.91;;;6.49;100.00
48364;BME280;34170;54.364;18.582;2023-04-01T03:02:30;98495.28;;;6.57;100.00
48364;BME280;34170;54.364;18.582;2023-04-01T03:04:58;98500.03;;;6.29;100.00
48364;BME280;34170;54.364;18.582;2023-04-01T03:07:25;98501.25;;;6.43;100.00
48364;BME280;34170;54.364;18.582;2023-04-01T03:09:52;98499.66;;;6.66;100.00
48364;BME280;34170;54.364;18.582;2023-04-01T03:12:21;98503.50;;;6.72;100.00
48364;BME280;34170;54.364;18.582;2023-04-01T03:14:50;98500.00;;;6.72;100.00
48364;BME280;34170;54.364;18.582;2023-04-01T03:17:17;98509.69;;;6.73;100.00
48364;BME280;34170;54.364;18.582;2023-04-01T03:19:45;98501.00;;;6.62;100.00
48364;BME280;34170;54.364;18.582;2023-04-01T03:22:13;98511.84;;;6.77;100.00
48364;BME280;34170;54.364;18.582;2023-04-01T03:24:41;98512.03;;;6.67;100.00
48364;BME280;34170;54.364;18.582;2023-04-01T03:27:08;98508.19;;;6.78;100.00
48364;BME280;34170;54.364;18.582;2023-04-01T03:29:36;98508.69;;;6.82;100.00
48364;BME280;34170;54.364;18.582;2023-04-01T03:32:03;98509.03;;;6.79;100.00
48364;BME280;34170;54.364;18.582;2023-04-01T03:34:31;98500.97;;;6.71;100.00
48364;BME280;34170;54.364;18.582;2023-04-01T03:36:58;98510.88;;;6.78;100.00
48364;BME280;34170;54.364;18.582;2023-04-01T03:39:26;98515.22;;;6.87;100.00
48364;BME280;34170;54.364;18.582;2023-04-01T03:41:54;98519.72;;;6.79;100.00
48364;BME280;34170;54.364;18.582;2023-04-01T03:44:21;98514.19;;;6.72;100.00
48364;BME280;34170;54.364;18.582;2023-04-01T03:46:52;98511.03;;;6.77;100.00
48364;BME280;34170;54.364;18.582;2023-04-01T03:49:19;98517.72;;;6.81;100.00
48364;BME280;34170;54.364;18.582;2023-04-01T03:51:46;98512.38;;;6.81;100.00
48364;BME280;34170;54.364;18.582;2023-04-01T03:54:14;98515.06;;;6.89;100.00
48364;BME280;34170;54.364;18.582;2023-04-01T03:56:42;98514.34;;;6.71;100.00
48364;BME280;34170;54.364;18.582;2023-04-01T03:59:12;98520.16;;;6.49;100.00
48364;BME280;34170;54.364;18.582;2023-04-01T04:01:39;98522.69;;;6.67;100.00
48364;BME280;34170;54.364;18.582;2023-04-01T04:04:11;98533.03;;;6.62;100.00
48364;BME280;34170;54.364;18.582;2023-04-01T04:06:40;98522.69;;;6.67;100.00
48364;BME280;34170;54.364;18.582;2023-04-01T04:09:08;98525.22;;;6.69;100.00
48364;BME280;34170;54.364;18.582;2023-04-01T04:11:35;98521.03;;;6.75;100.00
48364;BME280;34170;54.364;18.582;2023-04-01T04:14:02;98519.06;;;6.85;100.00
48364;BME280;34170;54.364;18.582;2023-04-01T04:16:30;98528.03;;;6.76;100.00
48364;BME280;34170;54.364;18.582;2023-04-01T04:19:01;98535.44;;;6.82;100.00
48364;BME280;34170;54.364;18.582;2023-04-01T04:21:28;98532.09;;;6.80;100.00
48364;BME280;34170;54.364;18.582;2023-04-01T04:23:58;98536.69;;;6.61;100.00
48364;BME280;34170;54.364;18.582;2023-04-01T04:26:26;98544.75;;;6.70;100.00
48364;BME280;34170;54.364;18.582;2023-04-01T04:28:59;98546.19;;;6.56;100.00
48364;BME280;34170;54.364;18.582;2023-04-01T04:31:27;98535.50;;;6.47;100.00
48364;BME280;34170;54.364;18.582;2023-04-01T04:33:59;98527.31;;;6.49;100.00
48364;BME280;34170;54.364;18.582;2023-04-01T04:36:30;98539.38;;;6.61;100.00
48364;BME280;34170;54.364;18.582;2023-04-01T04:38:58;98535.91;;;6.26;100.00
48364;BME280;34170;54.364;18.582;2023-04-01T04:41:30;98541.63;;;6.40;100.00
48364;BME280;34170;54.364;18.582;2023-04-01T04:43:57;98533.34;;;6.51;100.00
48364;BME280;34170;54.364;18.582;2023-04-01T04:46:25;98539.72;;;6.66;100.00
48364;BME280;34170;54.364;18.582;2023-04-01T04:48:59;98545.06;;;6.58;100.00
48364;BME280;34170;54.364;18.582;2023-04-01T04:51:27;98545.41;;;6.72;100.00
48364;BME280;34170;54.364;18.582;2023-04-01T04:53:54;98543.78;;;6.87;100.00
48364;BME280;34170;54.364;18.582;2023-04-01T04:56:32;98540.06;;;6.72;100.00
48364;BME280;34170;54.364;18.582;2023-04-01T04:59:05;98535.44;;;6.82;100.00
48364;BME280;34170;54.364;18.582;2023-04-01T05:01:51;98542.59;;;6.73;100.00
48364;BME280;34170;54.364;18.582;2023-04-01T05:04:19;98536.53;;;6.63;100.00
48364;BME280;34170;54.364;18.582;2023-04-01T05:06:47;98548.59;;;6.24;100.00
48364;BME280;34170;54.364;18.582;2023-04-01T05:09:16;98550.50;;;6.06;100.00
48364;BME280;34170;54.364;18.582;2023-04-01T05:11:44;98553.78;;;6.34;100.00
48364;BME280;34170;54.364;18.582;2023-04-01T05:14:16;98547.34;;;6.10;100.00
48364;BME280;34170;54.364;18.582;2023-04-01T05:16:52;98565.97;;;6.28;100.00
48364;BME280;34170;54.364;18.582;2023-04-01T05:19:21;98554.34;;;6.11;100.00
48364;BME280;34170;54.364;18.582;2023-04-01T05:21:49;98568.56;;;6.20;100.00
48364;BME280;34170;54.364;18.582;2023-04-01T05:24:17;98561.97;;;6.33;100.00
48364;BME280;34170;54.364;18.582;2023-04-01T05:26:44;98570.47;;;6.28;100.00
48364;BME280;34170;54.364;18.582;2023-04-01T05:29:13;98577.81;;;6.34;100.00
48364;BME280;34170;54.364;18.582;2023-04-01T05:31:42;98578.38;;;6.46;100.00
48364;BME280;34170;54.364;18.582;2023-04-01T05:34:10;98573.28;;;6.26;100.00
48364;BME280;34170;54.364;18.582;2023-04-01T05:36:37;98568.34;;;6.05;100.00
48364;BME280;34170;54.364;18.582;2023-04-01T05:39:05;98581.25;;;5.92;100.00
48364;BME280;34170;54.364;18.582;2023-04-01T05:41:38;98585.34;;;5.86;100.00
48364;BME280;34170;54.364;18.582;2023-04-01T05:44:06;98580.00;;;5.78;100.00
48364;BME280;34170;54.364;18.582;2023-04-01T05:46:39;98573.75;;;5.69;100.00
48364;BME280;34170;54.364;18.582;2023-04-01T05:49:21;98589.31;;;6.00;100.00
48364;BME280;34170;54.364;18.582;2023-04-01T05:51:50;98580.00;;;5.78;100.00
48364;BME280;34170;54.364;18.582;2023-04-01T05:54:18;98589.94;;;5.94;100.00
48364;BME280;34170;54.364;18.582;2023-04-01T05:56:46;98594.69;;;5.82;100.00
48364;BME280;34170;54.364;18.582;2023-04-01T05:59:15;98605.75;;;5.69;100.00
48364;BME280;34170;54.364;18.582;2023-04-01T06:01:42;98596.53;;;5.82;100.00
48364;BME280;34170;54.364;18.582;2023-04-01T06:04:15;98606.28;;;5.73;100.00
48364;BME280;34170;54.364;18.582;2023-04-01T06:06:44;98607.53;;;5.61;100.00
48364;BME280;34170;54.364;18.582;2023-04-01T06:09:18;98619.31;;;5.76;100.00
48364;BME280;34170;54.364;18.582;2023-04-01T06:12:09;98623.41;;;5.70;100.00
48364;BME280;34170;54.364;18.582;2023-04-01T06:15:07;98627.31;;;5.76;100.00
48364;BME280;34170;54.364;18.582;2023-04-01T06:20:43;98615.66;;;5.77;100.00
48364;BME280;34170;54.364;18.582;2023-04-01T06:28:41;98645.16;;;5.58;100.00
48364;BME280;34170;54.364;18.582;2023-04-01T06:31:24;98643.34;;;5.58;100.00
48364;BME280;34170;54.364;18.582;2023-04-01T06:40:03;98650.81;;;5.54;100.00
48364;BME280;34170;54.364;18.582;2023-04-01T06:46:15;98655.69;;;5.59;100.00
48364;BME280;34170;54.364;18.582;2023-04-01T06:52:36;98662.31;;;5.73;100.00
48364;BME280;34170;54.364;18.582;2023-04-01T06:58:24;98666.97;;;5.35;100.00
48364;BME280;34170;54.364;18.582;2023-04-01T07:00:56;98678.22;;;5.47;100.00
48364;BME280;34170;54.364;18.582;2023-04-01T07:06:01;98665.91;;;5.46;100.00
48364;BME280;34170;54.364;18.582;2023-04-01T07:08:34;98676.88;;;5.43;100.00
48364;BME280;34170;54.364;18.582;2023-04-01T07:11:06;98682.63;;;5.20;100.00
48364;BME280;34170;54.364;18.582;2023-04-01T07:14:01;98688.59;;;5.50;100.00
48364;BME280;34170;54.364;18.582;2023-04-01T07:16:33;98692.72;;;5.62;100.00
48364;BME280;34170;54.364;18.582;2023-04-01T07:19:08;98686.38;;;5.45;100.00
48364;BME280;34170;54.364;18.582;2023-04-01T07:21:56;98696.91;;;5.65;100.00
48364;BME280;34170;54.364;18.582;2023-04-01T07:24:44;98696.44;;;5.87;100.00
48364;BME280;34170;54.364;18.582;2023-04-01T07:27:13;98699.09;;;5.87;100.00
48364;BME280;34170;54.364;18.582;2023-04-01T07:29:43;98696.13;;;5.90;100.00
48364;BME280;34170;54.364;18.582;2023-04-01T07:41:08;98704.22;;;5.63;100.00
48364;BME280;34170;54.364;18.582;2023-04-01T07:43:50;98717.63;;;5.71;100.00
48364;BME280;34170;54.364;18.582;2023-04-01T07:54:42;98722.50;;;5.58;100.00
48364;BME280;34170;54.364;18.582;2023-04-01T08:00:01;98730.56;;;5.30;100.00
48364;BME280;34170;54.364;18.582;2023-04-01T08:05:27;98737.31;;;5.24;100.00
48364;BME280;34170;54.364;18.582;2023-04-01T08:08:01;98738.19;;;5.15;100.00
48364;BME280;34170;54.364;18.582;2023-04-01T08:14:40;98743.66;;;5.41;100.00
48364;BME280;34170;54.364;18.582;2023-04-01T08:22:55;98747.41;;;5.66;100.00
48364;BME280;34170;54.364;18.582;2023-04-01T08:25:30;98764.88;;;5.79;100.00
48364;BME280;34170;54.364;18.582;2023-04-01T08:28:15;98761.41;;;5.50;100.00
48364;BME280;34170;54.364;18.582;2023-04-01T08:33:28;98755.94;;;5.52;100.00
48364;BME280;34170;54.364;18.582;2023-04-01T08:36:20;98771.78;;;5.53;100.00
48364;BME280;34170;54.364;18.582;2023-04-01T08:39:09;98767.38;;;5.44;100.00
48364;BME280;34170;54.364;18.582;2023-04-01T08:45:10;98760.50;;;5.42;100.00
48364;BME280;34170;54.364;18.582;2023-04-01T08:53:55;98784.94;;;5.37;100.00
48364;BME280;34170;54.364;18.582;2023-04-01T09:19:16;98808.63;;;5.12;100.00
48364;BME280;34170;54.364;18.582;2023-04-01T09:30:58;98821.19;;;5.30;100.00
48364;BME280;34170;54.364;18.582;2023-04-01T09:33:42;98843.53;;;5.47;100.00
48364;BME280;34170;54.364;18.582;2023-04-01T09:38:59;98837.50;;;5.45;100.00
48364;BME280;34170;54.364;18.582;2023-04-01T09:41:36;98844.72;;;5.62;100.00
48364;BME280;34170;54.364;18.582;2023-04-01T09:44:24;98845.81;;;5.69;100.00
48364;BME280;34170;54.364;18.582;2023-04-01T10:04:58;98871.13;;;5.65;100.00
48364;BME280;34170;54.364;18.582;2023-04-01T10:21:28;98888.72;;;5.48;100.00
48364;BME280;34170;54.364;18.582;2023-04-01T10:36:16;98896.03;;;5.46;100.00
48364;BME280;34170;54.364;18.582;2023-04-01T10:44:58;98904.09;;;5.64;100.00
48364;BME280;34170;54.364;18.582;2023-04-01T10:48:13;98899.09;;;5.14;100.00
48364;BME280;34170;54.364;18.582;2023-04-01T10:51:10;98902.03;;;5.21;100.00
48364;BME280;34170;54.364;18.582;2023-04-01T10:53:46;98922.06;;;5.62;100.00
48364;BME280;34170;54.364;18.582;2023-04-01T11:03:07;98930.50;;;5.58;100.00
48364;BME280;34170;54.364;18.582;2023-04-01T11:11:57;98924.94;;;5.79;100.00
48364;BME280;34170;54.364;18.582;2023-04-01T11:20:21;98952.16;;;5.82;100.00
48364;BME280;34170;54.364;18.582;2023-04-01T11:31:39;98969.78;;;5.08;100.00
48364;BME280;34170;54.364;18.582;2023-04-01T11:40:23;98973.63;;;5.43;100.00
48364;BME280;34170;54.364;18.582;2023-04-01T11:46:49;98974.38;;;5.35;100.00
48364;BME280;34170;54.364;18.582;2023-04-01T11:55:27;98974.59;;;5.52;100.00
48364;BME280;34170;54.364;18.582;2023-04-01T12:00:53;98980.47;;;5.56;100.00
48364;BME280;34170;54.364;18.582;2023-04-01T12:06:19;98974.38;;;5.35;100.00
48364;BME280;34170;54.364;18.582;2023-04-01T12:09:12;98971.56;;;5.37;100.00
48364;BME280;34170;54.364;18.582;2023-04-01T12:55:48;99040.03;;;5.46;100.00
48364;BME280;34170;54.364;18.582;2023-04-01T13:01:27;99042.56;;;5.09;100.00
48364;BME280;34170;54.364;18.582;2023-04-01T13:04:28;99046.22;;;5.18;100.00
48364;BME280;34170;54.364;18.582;2023-04-01T13:14:59;99073.69;;;4.99;100.00
48364;BME280;34170;54.364;18.582;2023-04-01T13:21:05;99084.50;;;4.97;100.00
48364;BME280;34170;54.364;18.582;2023-04-01T13:24:00;99097.81;;;4.97;100.00
48364;BME280;34170;54.364;18.582;2023-04-01T13:26:38;99096.06;;;4.67;100.00
48364;BME280;34170;54.364;18.582;2023-04-01T13:35:06;99091.19;;;4.72;100.00
48364;BME280;34170;54.364;18.582;2023-04-01T13:40:30;99091.31;;;4.51;100.00
48364;BME280;34170;54.364;18.582;2023-04-01T13:43:08;99087.75;;;4.41;100.00
48364;BME280;34170;54.364;18.582;2023-04-01T13:46:06;99098.59;;;4.68;100.00
48364;BME280;34170;54.364;18.582;2023-04-01T14:03:28;99117.94;;;4.70;100.00
48364;BME280;34170;54.364;18.582;2023-04-01T14:12:31;99132.13;;;4.71;100.00
48364;BME280;34170;54.364;18.582;2023-04-01T14:23:48;99147.25;;;4.70;100.00
48364;BME280;34170;54.364;18.582;2023-04-01T14:31:54;99149.63;;;4.64;100.00
48364;BME280;34170;54.364;18.582;2023-04-01T14:40:28;99149.69;;;4.43;100.00
48364;BME280;34170;54.364;18.582;2023-04-01T14:43:01;99161.94;;;4.65;100.00
48364;BME280;34170;54.364;18.582;2023-04-01T14:48:32;99156.81;;;4.83;100.00
48364;BME280;34170;54.364;18.582;2023-04-01T14:51:15;99171.19;;;4.61;100.00
48364;BME280;34170;54.364;18.582;2023-04-01T14:53:54;99178.97;;;4.43;100.00
48364;BME280;34170;54.364;18.582;2023-04-01T14:57:14;99173.34;;;4.36;100.00
48364;BME280;34170;54.364;18.582;2023-04-01T15:00:13;99180.28;;;4.27;100.00
48364;BME280;34170;54.364;18.582;2023-04-01T15:02:58;99181.81;;;4.51;100.00
48364;BME280;34170;54.364;18.582;2023-04-01T15:05:40;99189.97;;;4.59;100.00
48364;BME280;34170;54.364;18.582;2023-04-01T15:08:16;99183.75;;;4.49;100.00
48364;BME280;34170;54.364;18.582;2023-04-01T15:16:16;99204.84;;;4.62;100.00
48364;BME280;34170;54.364;18.582;2023-04-01T15:22:43;99211.50;;;4.46;100.00
48364;BME280;34170;54.364;18.582;2023-04-01T15:28:42;99217.00;;;4.54;100.00
48364;BME280;34170;54.364;18.582;2023-04-01T15:31:14;99232.84;;;4.56;100.00
48364;BME280;34170;54.364;18.582;2023-04-01T15:34:14;99222.94;;;4.68;100.00
48364;BME280;34170;54.364;18.582;2023-04-01T15:37:02;99235.22;;;4.28;100.00
48364;BME280;34170;54.364;18.582;2023-04-01T15:39:43;99245.44;;;4.54;100.00
48364;BME280;34170;54.364;18.582;2023-04-01T15:42:43;99216.13;;;4.23;100.00
48364;BME280;34170;54.364;18.582;2023-04-01T15:54:28;99270.66;;;4.50;100.00
48364;BME280;34170;54.364;18.582;2023-04-01T16:11:12;99283.97;;;4.50;100.00
48364;BME280;34170;54.364;18.582;2023-04-01T16:14:06;99281.84;;;4.44;100.00
48364;BME280;34170;54.364;18.582;2023-04-01T16:19:23;99291.03;;;4.18;100.00
48364;BME280;34170;54.364;18.582;2023-04-01T16:25:26;99316.13;;;4.37;100.00
48364;BME280;34170;54.364;18.582;2023-04-01T16:30:57;99318.81;;;4.05;100.00
48364;BME280;34170;54.364;18.582;2023-04-01T16:39:10;99318.53;;;4.08;100.00
48364;BME280;34170;54.364;18.582;2023-04-01T16:44:50;99324.91;;;3.84;100.00
48364;BME280;34170;54.364;18.582;2023-04-01T16:47:30;99333.91;;;4.04;100.00
48364;BME280;34170;54.364;18.582;2023-04-01T16:55:46;99349.38;;;3.67;100.00
48364;BME280;34170;54.364;18.582;2023-04-01T16:58:23;99349.38;;;3.78;100.00
48364;BME280;34170;54.364;18.582;2023-04-01T17:01:04;99354.44;;;3.70;100.00
48364;BME280;34170;54.364;18.582;2023-04-01T17:03:45;99357.09;;;3.81;100.00
48364;BME280;34170;54.364;18.582;2023-04-01T17:06:49;99366.88;;;3.92;100.00
48364;BME280;34170;54.364;18.582;2023-04-01T17:23:53;99405.66;;;3.94;100.00
48364;BME280;34170;54.364;18.582;2023-04-01T17:32:21;99409.94;;;3.63;100.00
48364;BME280;34170;54.364;18.582;2023-04-01T17:44:01;99430.47;;;3.61;100.00
48364;BME280;34170;54.364;18.582;2023-04-01T17:47:10;99421.44;;;3.63;100.00
48364;BME280;34170;54.364;18.582;2023-04-01T17:50:02;99430.09;;;3.88;100.00
48364;BME280;34170;54.364;18.582;2023-04-01T17:52:42;99453.22;;;3.65;100.00
48364;BME280;34170;54.364;18.582;2023-04-01T18:09:33;99447.88;;;3.99;100.00
48364;BME280;34170;54.364;18.582;2023-04-01T18:25:37;99470.66;;;4.13;100.00
48364;BME280;34170;54.364;18.582;2023-04-01T18:33:41;99491.75;;;3.93;100.00
48364;BME280;34170;54.364;18.582;2023-04-01T18:36:59;99487.28;;;3.94;100.00
48364;BME280;34170;54.364;18.582;2023-04-01T18:39:10;99494.63;;;4.13;100.00
48364;BME280;34170;54.364;18.582;2023-04-01T18:44:56;99498.50;;;4.09;100.00
48364;BME280;34170;54.364;18.582;2023-04-01T18:47:36;99496.94;;;3.95;100.00
48364;BME280;34170;54.364;18.582;2023-04-01T18:52:47;99517.53;;;3.81;100.00
48364;BME280;34170;54.364;18.582;2023-04-01T18:55:31;99509.03;;;3.88;100.00
48364;BME280;34170;54.364;18.582;2023-04-01T19:01:12;99511.13;;;3.95;100.00
48364;BME280;34170;54.364;18.582;2023-04-01T19:06:51;99514.56;;;4.30;100.00
48364;BME280;34170;54.364;18.582;2023-04-01T19:09:32;99511.19;;;4.28;100.00
48364;BME280;34170;54.364;18.582;2023-04-01T19:20:40;99520.16;;;4.04;100.00
48364;BME280;34170;54.364;18.582;2023-04-01T19:26:13;99545.31;;;3.89;100.00
48364;BME280;34170;54.364;18.582;2023-04-01T19:28:56;99546.41;;;3.97;100.00
48364;BME280;34170;54.364;18.582;2023-04-01T19:31:42;99551.50;;;3.78;100.00
48364;BME280;34170;54.364;18.582;2023-04-01T19:34:46;99540.22;;;3.63;100.00
48364;BME280;34170;54.364;18.582;2023-04-01T19:37:32;99555.09;;;3.77;100.00
48364;BME280;34170;54.364;18.582;2023-04-01T19:50:46;99570.56;;;3.60;100.00
48364;BME280;34170;54.364;18.582;2023-04-01T19:56:17;99578.25;;;3.52;100.00
48364;BME280;34170;54.364;18.582;2023-04-01T20:01:30;99594.81;;;3.44;100.00
48364;BME280;34170;54.364;18.582;2023-04-01T20:07:06;99599.50;;;3.41;100.00
48364;BME280;34170;54.364;18.582;2023-04-01T20:10:03;99597.66;;;3.66;100.00
48364;BME280;34170;54.364;18.582;2023-04-01T20:13:37;99605.59;;;3.54;100.00
48364;BME280;34170;54.364;18.582;2023-04-01T20:15:48;99593.59;;;3.37;100.00
48364;BME280;34170;54.364;18.582;2023-04-01T20:18:48;99601.22;;;3.42;100.00
48364;BME280;34170;54.364;18.582;2023-04-01T20:21:33;99607.97;;;3.35;100.00
48364;BME280;34170;54.364;18.582;2023-04-01T20:24:15;99613.91;;;3.14;100.00
48364;BME280;34170;54.364;18.582;2023-04-01T20:26:49;99592.09;;;3.22;100.00
48364;BME280;34170;54.364;18.582;2023-04-01T20:40:19;99634.63;;;3.22;100.00
48364;BME280;34170;54.364;18.582;2023-04-01T20:45:37;99627.53;;;3.34;100.00
48364;BME280;34170;54.364;18.582;2023-04-01T20:51:06;99653.03;;;3.36;100.00
48364;BME280;34170;54.364;18.582;2023-04-01T20:53:43;99649.75;;;3.33;100.00
48364;BME280;34170;54.364;18.582;2023-04-01T21:04:29;99669.13;;;3.46;100.00
48364;BME280;34170;54.364;18.582;2023-04-01T21:07:06;99660.97;;;3.01;100.00
48364;BME280;34170;54.364;18.582;2023-04-01T21:09:48;99659.59;;;3.19;100.00
48364;BME280;34170;54.364;18.582;2023-04-01T21:34:42;99690.44;;;3.57;100.00
48364;BME280;34170;54.364;18.582;2023-04-01T21:40:42;99697.41;;;3.23;100.00
48364;BME280;34170;54.364;18.582;2023-04-01T21:43:40;99683.38;;;3.45;100.00
48364;BME280;34170;54.364;18.582;2023-04-01T21:52:35;99706.81;;;3.40;100.00
48364;BME280;34170;54.364;18.582;2023-04-01T21:58:04;99710.28;;;3.65;100.00
48364;BME280;34170;54.364;18.582;2023-04-01T22:04:19;99704.75;;;3.68;100.00
48364;BME280;34170;54.364;18.582;2023-04-01T22:09:43;99722.00;;;3.38;100.00
48364;BME280;34170;54.364;18.582;2023-04-01T22:23:07;99747.84;;;3.36;100.00
48364;BME280;34170;54.364;18.582;2023-04-01T22:25:56;99720.66;;;3.32;100.00
48364;BME280;34170;54.364;18.582;2023-04-01T22:28:38;99734.50;;;3.49;100.00
48364;BME280;34170;54.364;18.582;2023-04-01T22:31:13;99721.81;;;3.52;100.00
48364;BME280;34170;54.364;18.582;2023-04-01T22:34:03;99750.06;;;3.42;100.00
48364;BME280;34170;54.364;18.582;2023-04-01T22:36:40;99741.13;;;3.43;100.00
48364;BME280;34170;54.364;18.582;2023-04-01T22:44:37;99765.03;;;3.19;100.00
48364;BME280;34170;54.364;18.582;2023-04-01T22:50:45;99762.78;;;3.26;100.00
48364;BME280;34170;54.364;18.582;2023-04-01T22:52:50;99758.69;;;3.09;100.00
48364;BME280;34170;54.364;18.582;2023-04-01T22:55:29;99765.91;;;3.07;100.00
48364;BME280;34170;54.364;18.582;2023-04-01T22:58:07;99763.19;;;2.82;100.00
48364;BME280;34170;54.364;18.582;2023-04-01T23:05:50;99760.13;;;2.76;100.00
48364;BME280;34170;54.364;18.582;2023-04-01T23:11:04;99770.13;;;2.72;100.00
48364;BME280;34170;54.364;18.582;2023-04-01T23:13:46;99770.09;;;2.85;100.00
48364;BME280;34170;54.364;18.582;2023-04-01T23:16:15;99770.06;;;2.98;100.00
48364;BME280;34170;54.364;18.582;2023-04-01T23:18:55;99764.84;;;3.09;100.00
48364;BME280;34170;54.364;18.582;2023-04-01T23:21:34;99770.41;;;3.06;100.00
48364;BME280;34170;54.364;18.582;2023-04-01T23:24:28;99774.91;;;3.30;100.00